Time;durP1;ratioP1;P1;durP2;ratioP2;P2;SDS_P1;SDS_P2;PMS_P1;PMS_P2;Temp;Humidity;BMP_temperature;BMP_pressure;BME280_temperature;BME280_humidity;BME280_pressure;Samples;Min_cycle;Max_cycle;Signal;HPM_P1;HPM_P2
2023/05/06 00:00:24;;;;;;;11.95;7.97;;;;;;;11.79;100.00;100514.06;5546189;32;34729;-68
2023/05/06 00:03:28;;;;;;;10.13;7.37;;;;;;;11.74;100.00;100512.75;5547390;32;33642;-68
2023/05/06 00:06:32;;;;;;;11.50;7.65;;;;;;;11.89;100.00;100515.50;5547345;32;34341;-69
2023/05/06 00:09:35;;;;;;;13.30;6.93;;;;;;;12.06;100.00;100516.25;5546557;32;33713;-68
2023/05/06 00:12:38;;;;;;;11.27;7.53;;;;;;;12.06;100.00;100514.41;5546600;32;34403;-69
2023/05/06 00:15:41;;;;;;;14.07;7.43;;;;;;;11.97;100.00;100504.81;5547067;32;33827;-69
2023/05/06 00:18:43;;;;;;;13.18;7.32;;;;;;;11.71;100.00;100517.56;5547324;32;33980;-69
2023/05/06 00:21:46;;;;;;;14.10;7.53;;;;;;;11.54;100.00;100513.28;5546939;32;34539;-69
2023/05/06 00:24:49;;;;;;;11.48;7.40;;;;;;;11.45;100.00;100511.63;5546914;32;35422;-69
2023/05/06 00:27:52;;;;;;;12.02;7.32;;;;;;;11.38;100.00;100516.78;5546887;32;33644;-69
2023/05/06 00:30:55;;;;;;;10.55;7.70;;;;;;;11.27;100.00;100517.16;5546576;32;34148;-69
2023/05/06 00:33:58;;;;;;;13.05;7.78;;;;;;;11.33;100.00;100525.25;5547097;32;34411;-68
2023/05/06 00:37:02;;;;;;;11.82;7.57;;;;;;;11.44;100.00;100520.59;5547132;32;33690;-68
2023/05/06 00:40:05;;;;;;;13.73;7.78;;;;;;;11.63;100.00;100529.00;5546746;32;33864;-68
2023/05/06 00:43:08;;;;;;;12.80;7.53;;;;;;;11.70;100.00;100518.53;5546785;32;33567;-69
2023/05/06 00:46:14;;;;;;;13.65;8.05;;;;;;;11.66;100.00;100527.88;5546676;32;34433;-69
2023/05/06 00:49:18;;;;;;;11.95;7.70;;;;;;;11.60;100.00;100526.72;5546169;32;34903;-69
2023/05/06 00:52:21;;;;;;;12.52;7.68;;;;;;;11.53;100.00;100530.19;5546638;32;33774;-69
2023/05/06 00:55:25;;;;;;;14.07;7.80;;;;;;;11.49;100.00;100523.56;5546445;32;33575;-69
2023/05/06 00:58:28;;;;;;;16.15;7.82;;;;;;;11.51;100.00;100530.41;5546651;32;34537;-69
2023/05/06 01:01:32;;;;;;;12.65;8.00;;;;;;;11.36;100.00;100525.94;5545408;32;34108;-69
2023/05/06 01:04:35;;;;;;;11.23;7.72;;;;;;;11.38;100.00;100522.09;5546297;32;33896;-69
2023/05/06 01:08:05;;;;;;;14.43;7.78;;;;;;;11.28;100.00;100514.31;5547354;32;33948;-69
2023/05/06 01:11:16;;;;;;;11.70;8.07;;;;;;;11.26;100.00;100512.84;5549053;32;33549;-69
2023/05/06 01:14:35;;;;;;;13.32;8.27;;;;;;;11.23;100.00;100521.97;5549084;32;33790;-69
2023/05/06 01:17:43;;;;;;;16.73;8.30;;;;;;;11.32;100.00;100526.28;5548919;32;34379;-69
2023/05/06 01:20:50;;;;;;;15.73;8.27;;;;;;;11.32;100.00;100522.81;5548919;32;33821;-69
2023/05/06 01:23:56;;;;;;;11.80;7.50;;;;;;;11.28;100.00;100522.28;5549129;32;33830;-69
2023/05/06 01:27:00;;;;;;;13.68;8.50;;;;;;;11.13;100.00;100521.34;5548872;32;34553;-69
2023/05/06 01:30:03;;;;;;;14.70;7.65;;;;;;;11.07;100.00;100515.84;5548767;32;34498;-69
2023/05/06 01:33:38;;;;;;;12.82;7.35;;;;;;;11.06;100.00;100506.22;5547834;32;33678;-69
2023/05/06 01:37:16;;;;;;;9.77;7.57;;;;;;;11.05;100.00;100508.06;5543129;32;32958;-69
2023/05/06 01:40:25;;;;;;;11.77;8.07;;;;;;;10.99;100.00;100494.63;5516017;32;34379;-69
2023/05/06 01:43:33;;;;;;;10.18;7.90;;;;;;;10.97;100.00;100493.97;5548671;32;35019;-69
2023/05/06 01:46:35;;;;;;;12.05;7.55;;;;;;;10.87;100.00;100499.44;5548671;32;34426;-69
2023/05/06 01:49:38;;;;;;;12.60;7.90;;;;;;;10.81;100.00;100494.81;5547491;32;34233;-69
2023/05/06 01:52:41;;;;;;;12.02;7.80;;;;;;;10.77;100.00;100491.66;5548635;32;33596;-69
2023/05/06 01:55:44;;;;;;;11.85;7.53;;;;;;;10.79;100.00;100494.97;5548548;32;35038;-69
2023/05/06 01:58:47;;;;;;;9.82;7.40;;;;;;;10.76;100.00;100494.47;5548557;32;33855;-69
2023/05/06 02:01:50;;;;;;;11.75;7.70;;;;;;;10.70;100.00;100490.66;5548518;32;33877;-69
2023/05/06 02:04:53;;;;;;;12.18;7.53;;;;;;;10.69;100.00;100489.00;5548699;32;33766;-69
2023/05/06 02:07:55;;;;;;;14.80;7.93;;;;;;;10.69;100.00;100491.66;5548397;32;34439;-69
2023/05/06 02:10:59;;;;;;;13.30;7.00;;;;;;;10.75;100.00;100490.97;5548277;32;33916;-69
2023/05/06 02:14:02;;;;;;;12.73;7.35;;;;;;;10.71;100.00;100496.78;5548266;32;33806;-69
2023/05/06 02:17:05;;;;;;;10.13;7.00;;;;;;;10.67;100.00;100498.13;5548367;32;33784;-69
2023/05/06 02:20:10;;;;;;;9.75;7.37;;;;;;;10.78;100.00;100503.94;5547613;32;34607;-69
2023/05/06 02:23:14;;;;;;;8.70;6.87;;;;;;;10.78;100.00;100501.28;5548272;32;34496;-69
2023/05/06 02:26:17;;;;;;;10.23;7.47;;;;;;;10.76;100.00;100497.13;5548317;32;34476;-69
2023/05/06 02:29:19;;;;;;;8.75;7.37;;;;;;;10.68;100.00;100503.28;5548244;32;34545;-69
2023/05/06 02:32:22;;;;;;;12.50;7.00;;;;;;;10.58;100.00;100507.06;5547403;32;34412;-68
2023/05/06 02:35:25;;;;;;;14.25;7.75;;;;;;;10.50;100.00;100509.72;5548195;32;34030;-69
2023/05/06 02:38:28;;;;;;;10.20;7.60;;;;;;;10.49;100.00;100508.88;5548486;32;33826;-69
2023/05/06 02:41:30;;;;;;;11.75;6.90;;;;;;;10.34;100.00;100503.41;5548261;32;34592;-69
2023/05/06 02:44:33;;;;;;;12.65;7.65;;;;;;;10.31;100.00;100510.84;5548480;32;33868;-69
2023/05/06 02:47:36;;;;;;;11.60;6.93;;;;;;;10.27;100.00;100504.19;5548026;32;33833;-69
2023/05/06 02:50:39;;;;;;;10.48;7.37;;;;;;;10.28;100.00;100505.88;5548135;32;34586;-69
2023/05/06 02:53:42;;;;;;;9.95;7.25;;;;;;;10.31;100.00;100511.66;5548563;32;34521;-68
2023/05/06 02:56:45;;;;;;;11.40;7.40;;;;;;;10.49;100.00;100508.06;5548161;32;33597;-69
2023/05/06 02:59:48;;;;;;;15.75;8.07;;;;;;;10.61;100.00;100515.53;5547119;32;34493;-69
2023/05/06 03:02:51;;;;;;;15.38;7.22;;;;;;;10.49;100.00;100516.84;5548051;32;33846;-69
2023/05/06 03:05:53;;;;;;;10.63;7.25;;;;;;;10.46;100.00;100515.34;5547966;32;35127;-69
2023/05/06 03:08:56;;;;;;;11.77;7.75;;;;;;;10.31;100.00;100506.34;5548027;32;33421;-69
2023/05/06 03:11:59;;;;;;;12.27;7.30;;;;;;;10.22;100.00;100509.97;5547931;32;33878;-69
2023/05/06 03:15:02;;;;;;;10.90;7.12;;;;;;;10.17;100.00;100514.94;5547856;32;33668;-69
2023/05/06 03:18:05;;;;;;;11.05;7.05;;;;;;;10.27;100.00;100514.81;5547914;32;34334;-69
2023/05/06 03:21:11;;;;;;;10.82;6.95;;;;;;;10.31;100.00;100508.22;5548394;32;33675;-69
2023/05/06 03:24:14;;;;;;;10.95;7.65;;;;;;;10.36;100.00;100517.31;5547940;32;34515;-68
2023/05/06 03:27:17;;;;;;;11.32;7.68;;;;;;;10.26;100.00;100513.16;5547945;32;34563;-69
2023/05/06 03:30:21;;;;;;;13.73;7.05;;;;;;;10.16;100.00;100507.16;5547553;32;33795;-68
2023/05/06 03:33:24;;;;;;;9.55;7.43;;;;;;;10.16;100.00;100499.22;5547755;32;33941;-69
2023/05/06 03:36:28;;;;;;;10.07;7.00;;;;;;;10.16;100.00;100492.09;5547944;32;33933;-69
2023/05/06 03:39:31;;;;;;;10.75;7.47;;;;;;;10.13;100.00;100495.03;5547704;32;33740;-69
2023/05/06 03:42:35;;;;;;;9.90;7.25;;;;;;;10.13;100.00;100491.53;5547948;32;33924;-69
2023/05/06 03:45:38;;;;;;;15.43;7.53;;;;;;;10.14;100.00;100488.72;5546780;32;34308;-69
2023/05/06 03:48:41;;;;;;;13.85;7.55;;;;;;;10.23;100.00;100497.56;5546277;32;33832;-69
2023/05/06 03:51:45;;;;;;;10.25;7.15;;;;;;;10.23;100.00;100497.56;5547478;32;34076;-68
2023/05/06 03:54:48;;;;;;;13.35;7.30;;;;;;;10.25;100.00;100493.78;5547526;32;34106;-68
2023/05/06 03:57:51;;;;;;;11.63;7.82;;;;;;;10.32;100.00;100505.37;5547418;32;34280;-69
2023/05/06 04:00:54;;;;;;;9.05;7.30;;;;;;;10.36;100.00;100508.56;5547449;32;33693;-69
2023/05/06 04:03:57;;;;;;;11.52;7.00;;;;;;;10.56;100.00;100512.53;5547738;32;33904;-69
2023/05/06 04:07:00;;;;;;;13.02;7.20;;;;;;;10.67;100.00;100519.34;5547626;32;34662;-69
2023/05/06 04:10:04;;;;;;;9.43;6.70;;;;;;;10.87;100.00;100516.22;5547286;32;34287;-69
2023/05/06 04:13:07;;;;;;;14.13;6.70;;;;;;;11.03;100.00;100520.69;5547164;32;33928;-69
2023/05/06 04:16:11;;;;;;;16.37;6.70;;;;;;;11.22;100.00;100522.16;5547207;32;34501;-68
2023/05/06 04:19:16;;;;;;;9.30;6.70;;;;;;;11.22;100.00;100528.28;5547235;32;35306;-68
2023/05/06 04:22:20;;;;;;;7.15;6.12;;;;;;;11.39;100.00;100525.59;5546959;32;33914;-69
2023/05/06 04:25:23;;;;;;;13.10;7.00;;;;;;;11.48;100.00;100524.56;5547048;32;33860;-69
2023/05/06 04:28:26;;;;;;;7.60;6.28;;;;;;;11.59;100.00;100517.06;5547080;32;34250;-69
2023/05/06 04:31:29;;;;;;;10.45;6.32;;;;;;;11.74;100.00;100525.19;5546940;32;33774;-69
2023/05/06 04:34:35;;;;;;;10.48;7.05;;;;;;;11.71;100.00;100525.53;5547252;32;32402;-69
2023/05/06 04:37:38;;;;;;;8.73;6.47;;;;;;;11.72;100.00;100524.50;5546791;32;34782;-70
2023/05/06 04:40:41;;;;;;;9.80;6.78;;;;;;;11.75;100.00;100519.72;5546787;32;34331;-70
2023/05/06 04:43:44;;;;;;;11.73;7.20;;;;;;;11.87;100.00;100527.28;5548800;32;33647;-70
2023/05/06 04:46:47;;;;;;;9.85;6.35;;;;;;;11.98;100.00;100533.06;5549187;32;33927;-69
2023/05/06 04:49:50;;;;;;;10.00;6.78;;;;;;;12.15;100.00;100534.66;5549000;32;34546;-70
2023/05/06 04:52:54;;;;;;;11.20;6.82;;;;;;;12.25;100.00;100536.28;5549101;32;34134;-70
2023/05/06 04:55:57;;;;;;;10.63;6.28;;;;;;;12.40;100.00;100545.16;5548674;32;34432;-69
2023/05/06 04:59:00;;;;;;;13.60;6.75;;;;;;;12.38;100.00;100542.69;5549262;32;33900;-69
2023/05/06 05:02:03;;;;;;;11.88;6.22;;;;;;;12.57;100.00;100546.72;5549182;32;33763;-69
2023/05/06 05:05:07;;;;;;;11.57;6.78;;;;;;;12.66;100.00;100558.13;5549188;32;33699;-69
2023/05/06 05:08:12;;;;;;;15.32;6.78;;;;;;;12.66;100.00;100552.81;5548953;32;34195;-69
2023/05/06 05:11:15;;;;;;;12.20;7.37;;;;;;;12.63;100.00;100568.13;5549018;32;33783;-69
2023/05/06 05:14:18;;;;;;;9.90;6.78;;;;;;;12.90;100.00;100561.44;5549006;32;34829;-70
2023/05/06 05:17:21;;;;;;;11.07;6.72;;;;;;;12.97;100.00;100559.72;5548786;32;33760;-69
2023/05/06 05:20:24;;;;;;;12.00;6.53;;;;;;;13.07;100.00;100564.78;5548973;32;34668;-70
2023/05/06 05:23:27;;;;;;;12.27;7.00;;;;;;;13.10;100.00;100555.63;5548571;32;34436;-69
2023/05/06 05:26:29;;;;;;;12.73;7.00;;;;;;;12.91;100.00;100560.44;5548992;32;34685;-69
2023/05/06 05:29:33;;;;;;;10.65;7.70;;;;;;;13.05;100.00;100550.84;5548639;32;33883;-70
2023/05/06 05:32:37;;;;;;;12.27;6.95;;;;;;;13.19;100.00;100560.75;5548721;32;34530;-70
2023/05/06 05:35:40;;;;;;;10.75;7.15;;;;;;;13.34;100.00;100556.28;5548805;32;34016;-70
2023/05/06 05:38:43;;;;;;;11.30;7.12;;;;;;;13.29;100.00;100556.00;5548882;32;34131;-70
2023/05/06 05:41:46;;;;;;;13.45;7.40;;;;;;;13.38;100.00;100549.56;5548551;32;33883;-70
2023/05/06 05:44:49;;;;;;;10.82;7.18;;;;;;;13.57;100.00;100553.53;5548377;32;33771;-69
2023/05/06 05:47:52;;;;;;;13.95;8.23;;;;;;;13.72;100.00;100558.87;5548603;32;34508;-70
2023/05/06 05:50:56;;;;;;;16.02;7.37;;;;;;;13.75;100.00;100562.00;5548696;32;34145;-70
2023/05/06 05:53:59;;;;;;;13.40;7.10;;;;;;;14.00;100.00;100557.19;5547243;32;33754;-71
2023/05/06 05:57:02;;;;;;;11.70;7.65;;;;;;;14.27;100.00;100551.19;5547927;32;34870;-69
2023/05/06 06:00:06;;;;;;;10.55;7.28;;;;;;;14.43;100.00;100562.69;5548326;32;33685;-69
2023/05/06 06:03:18;;;;;;;12.57;7.05;;;;;;;14.68;100.00;100556.81;5548874;32;34329;-69
2023/05/06 06:06:22;;;;;;;10.52;7.15;;;;;;;15.14;100.00;100551.91;5547769;32;33634;-69
2023/05/06 06:09:25;;;;;;;18.45;9.00;;;;;;;15.46;100.00;100555.00;5547335;32;34625;-69
2023/05/06 06:12:29;;;;;;;12.52;7.78;;;;;;;15.47;100.00;100545.97;5548159;32;33627;-69
2023/05/06 06:15:32;;;;;;;11.12;6.97;;;;;;;15.68;100.00;100555.81;5548466;32;33895;-69
2023/05/06 06:18:35;;;;;;;11.02;6.87;;;;;;;16.00;100.00;100547.94;5548554;32;33857;-69
2023/05/06 06:21:38;;;;;;;11.50;7.32;;;;;;;16.25;100.00;100556.31;5548142;32;33875;-69
2023/05/06 06:24:40;;;;;;;9.32;7.40;;;;;;;16.46;100.00;100558.81;5548246;32;33988;-70
2023/05/06 06:27:43;;;;;;;9.73;7.22;;;;;;;16.77;100.00;100552.13;5547448;32;34457;-69
2023/05/06 06:30:46;;;;;;;14.05;7.68;;;;;;;16.66;100.00;100545.50;5547835;32;33716;-69
2023/05/06 06:33:49;;;;;;;12.37;7.53;;;;;;;17.03;96.45;100546.81;5547955;32;34085;-70
2023/05/06 06:36:52;;;;;;;10.32;6.90;;;;;;;17.23;97.43;100546.81;5548030;32;33970;-69
2023/05/06 06:39:55;;;;;;;11.18;7.10;;;;;;;17.26;95.46;100546.41;5541546;32;34763;-69
2023/05/06 06:42:58;;;;;;;11.65;8.15;;;;;;;17.04;99.83;100551.12;5546466;32;34628;-69
2023/05/06 06:46:03;;;;;;;15.00;8.82;;;;;;;17.47;96.28;100545.34;5548324;32;33147;-69
2023/05/06 06:49:06;;;;;;;8.93;7.12;;;;;;;17.67;92.79;100540.81;5547368;32;34784;-69
2023/05/06 06:52:09;;;;;;;9.23;6.45;;;;;;;17.63;91.93;100542.25;5547948;32;33696;-69
2023/05/06 06:55:12;;;;;;;10.10;7.18;;;;;;;17.82;91.15;100538.69;5546967;32;33650;-69
2023/05/06 06:58:15;;;;;;;9.38;6.87;;;;;;;18.31;86.35;100537.25;5548238;32;33956;-69
2023/05/06 07:01:18;;;;;;;13.88;6.68;;;;;;;18.74;83.26;100543.66;5547744;32;33833;-69
2023/05/06 07:04:20;;;;;;;12.85;7.32;;;;;;;19.03;82.16;100536.81;5546931;32;33746;-69
2023/05/06 07:07:24;;;;;;;11.27;6.75;;;;;;;19.04;81.08;100541.16;5548024;32;33923;-69
2023/05/06 07:10:26;;;;;;;11.75;7.00;;;;;;;19.59;75.83;100535.94;5547868;32;34738;-69
2023/05/06 07:13:29;;;;;;;10.40;6.62;;;;;;;20.48;70.93;100532.63;5531279;32;33861;-69
2023/05/06 07:16:32;;;;;;;11.15;6.57;;;;;;;21.27;67.24;100542.19;5529191;32;33606;-69
2023/05/06 07:19:35;;;;;;;12.90;6.43;;;;;;;21.59;64.58;100543.50;5529119;32;33866;-69
2023/05/06 07:22:40;;;;;;;11.90;6.45;;;;;;;21.91;60.94;100550.16;5528284;32;34603;-69
2023/05/06 07:25:43;;;;;;;9.25;6.60;;;;;;;21.60;62.28;100545.13;5528357;32;34071;-69
2023/05/06 07:28:45;;;;;;;8.27;5.80;;;;;;;22.82;58.77;100545.75;5528458;32;34567;-69
2023/05/06 07:31:48;;;;;;;9.77;5.65;;;;;;;22.46;59.65;100546.97;5528303;32;33954;-69
2023/05/06 07:34:51;;;;;;;8.85;5.93;;;;;;;22.83;58.04;100544.69;5528476;32;33591;-70
2023/05/06 07:37:54;;;;;;;9.13;5.53;;;;;;;23.97;54.81;100545.09;5528396;32;35072;-70
2023/05/06 07:40:56;;;;;;;7.22;5.50;;;;;;;24.08;53.42;100546.88;5528022;32;34101;-70
2023/05/06 07:43:59;;;;;;;8.90;6.47;;;;;;;24.57;51.40;100540.41;5527775;32;33961;-70
2023/05/06 07:47:03;;;;;;;9.77;6.57;;;;;;;25.01;50.13;100540.31;5546315;32;34455;-70
2023/05/06 07:50:07;;;;;;;8.00;4.87;;;;;;;25.31;49.00;100537.00;5537742;32;270584;-70
2023/05/06 07:53:10;;;;;;;10.93;5.65;;;;;;;24.90;50.42;100542.09;5546088;32;33683;-70
2023/05/06 07:56:13;;;;;;;12.32;6.43;;;;;;;25.01;50.10;100538.41;5537437;32;33925;-70
2023/05/06 07:59:16;;;;;;;11.75;5.68;;;;;;;24.99;49.20;100535.13;5538406;32;33676;-70
2023/05/06 08:02:19;;;;;;;10.75;6.20;;;;;;;24.74;50.91;100542.22;5534069;32;33971;-70
2023/05/06 08:05:22;;;;;;;7.55;5.57;;;;;;;24.63;50.56;100544.00;5546461;32;33939;-70
2023/05/06 08:08:26;;;;;;;11.20;5.93;;;;;;;25.76;47.93;100533.78;5547293;32;33636;-70
2023/05/06 08:11:29;;;;;;;12.15;5.85;;;;;;;25.70;46.61;100534.84;5547097;32;33942;-71
2023/05/06 08:14:32;;;;;;;7.30;5.25;;;;;;;26.49;45.15;100545.50;5545920;32;34286;-70
2023/05/06 08:17:35;;;;;;;7.05;5.62;;;;;;;26.97;43.96;100545.06;5546041;32;33835;-70
2023/05/06 08:20:38;;;;;;;8.63;6.20;;;;;;;27.07;44.20;100550.50;5547266;32;33615;-70
2023/05/06 08:23:41;;;;;;;11.07;5.72;;;;;;;26.73;43.70;100549.34;5547195;32;34551;-70
2023/05/06 08:26:43;;;;;;;9.18;5.65;;;;;;;28.25;41.17;100547.28;5543222;32;33783;-72
2023/05/06 08:29:46;;;;;;;7.95;5.78;;;;;;;26.39;44.93;100543.56;5526919;32;34651;-70
2023/05/06 08:32:48;;;;;;;8.73;6.30;;;;;;;26.00;46.12;100542.34;5527468;32;33647;-71
2023/05/06 08:35:51;;;;;;;11.12;7.35;;;;;;;27.45;42.13;100540.16;5526884;32;33911;-71
2023/05/06 08:38:54;;;;;;;14.40;6.40;;;;;;;27.97;41.23;100545.22;5526826;32;34726;-72
2023/05/06 08:42:00;;;;;;;12.65;5.80;;;;;;;28.86;39.86;100541.47;5526945;32;33770;-70
2023/05/06 08:45:04;;;;;;;12.57;6.95;;;;;;;30.20;38.29;100541.50;5526856;32;33835;-70
2023/05/06 08:48:07;;;;;;;8.00;5.75;;;;;;;28.53;39.73;100543.84;5529225;32;33837;-71
2023/05/06 08:51:13;;;;;;;9.05;7.10;;;;;;;30.30;36.93;100538.66;5527028;32;33636;-71
2023/05/06 08:54:16;;;;;;;11.12;6.93;;;;;;;29.46;36.61;100534.69;5534780;32;33984;-71
2023/05/06 08:57:20;;;;;;;10.00;6.43;;;;;;;29.15;37.63;100534.12;5546303;32;34458;-71
2023/05/06 09:00:23;;;;;;;8.35;7.00;;;;;;;28.92;38.49;100527.50;5546303;32;33473;-70
2023/05/06 09:03:26;;;;;;;10.75;6.72;;;;;;;29.04;37.39;100527.12;5546076;32;33794;-71
2023/05/06 09:06:30;;;;;;;10.73;6.62;;;;;;;29.26;38.50;100526.66;5545944;32;34853;-71
2023/05/06 09:09:35;;;;;;;12.77;6.28;;;;;;;28.79;38.36;100521.87;5545809;32;33349;-70
2023/05/06 09:12:38;;;;;;;9.43;7.07;;;;;;;28.30;39.37;100524.63;5545444;32;32686;-70
2023/05/06 09:15:43;;;;;;;8.85;5.97;;;;;;;28.02;39.14;100526.91;5545284;32;33876;-71
2023/05/06 09:18:46;;;;;;;9.98;6.03;;;;;;;28.69;38.57;100522.72;5543010;32;34520;-71
2023/05/06 09:21:50;;;;;;;9.25;6.60;;;;;;;29.84;36.00;100513.75;5543587;32;34586;-70
2023/05/06 09:24:55;;;;;;;15.10;6.90;;;;;;;29.36;36.01;100508.28;5545812;32;33569;-70
2023/05/06 09:28:10;;;;;;;17.10;7.30;;;;;;;29.84;36.70;100510.19;5546299;32;33963;-71
2023/05/06 09:31:14;;;;;;;11.80;6.95;;;;;;;30.07;35.96;100509.38;5548676;32;33964;-71
2023/05/06 09:34:17;;;;;;;12.48;7.85;;;;;;;31.37;32.79;100502.97;5545456;32;34308;-74
2023/05/06 09:37:20;;;;;;;12.60;7.57;;;;;;;30.34;33.47;100506.00;5532125;32;34488;-71
2023/05/06 09:40:23;;;;;;;14.02;7.35;;;;;;;28.89;37.01;100491.75;5528872;32;34016;-71
2023/05/06 09:43:26;;;;;;;7.87;5.68;;;;;;;31.41;34.69;100497.72;5529009;32;34595;-71
2023/05/06 09:46:29;;;;;;;5.70;4.50;;;;;;;32.48;29.45;100501.81;5529207;32;34012;-70
2023/05/06 09:49:32;;;;;;;8.50;3.50;;;;;;;31.86;29.55;100496.00;5528743;32;33811;-71
2023/05/06 09:52:36;;;;;;;8.98;5.40;;;;;;;31.01;29.33;100491.84;5539490;32;34654;-73
2023/05/06 09:55:40;;;;;;;7.40;5.00;;;;;;;28.62;33.37;100484.00;5547408;32;33673;-71
2023/05/06 09:58:44;;;;;;;5.22;4.00;;;;;;;29.23;32.88;100475.31;5548439;32;34368;-70
2023/05/06 10:01:48;;;;;;;6.45;3.45;;;;;;;29.91;32.94;100464.19;5548253;32;34539;-72
2023/05/06 10:04:55;;;;;;;7.78;3.53;;;;;;;31.57;30.43;100463.41;5548226;32;34623;-72
2023/05/06 10:08:01;;;;;;;5.32;4.07;;;;;;;31.01;30.36;100456.22;5548397;32;33910;-71
2023/05/06 10:11:05;;;;;;;5.10;3.40;;;;;;;32.00;28.29;100461.13;5547595;32;33563;-70
2023/05/06 10:14:08;;;;;;;3.25;2.20;;;;;;;32.52;28.65;100454.19;5548055;32;34155;-71
2023/05/06 10:17:12;;;;;;;5.03;3.20;;;;;;;33.24;26.64;100447.72;5547549;32;34030;-70
2023/05/06 10:20:16;;;;;;;4.40;2.97;;;;;;;34.57;25.23;100449.75;5529508;32;34415;-72
2023/05/06 10:23:30;;;;;;;5.87;3.00;;;;;;;31.23;28.07;100447.31;5528427;32;34577;-71
2023/05/06 10:26:36;;;;;;;7.40;3.30;;;;;;;31.81;27.42;100444.78;5527840;32;34527;-71
2023/05/06 10:29:40;;;;;;;6.40;3.40;;;;;;;31.82;26.41;100438.19;5528647;32;33877;-71
2023/05/06 10:32:44;;;;;;;6.72;4.70;;;;;;;32.43;27.59;100447.00;5528834;32;33586;-71
2023/05/06 10:36:00;;;;;;;12.80;3.55;;;;;;;30.19;30.72;100435.88;5544850;32;33872;-70
2023/05/06 10:39:03;;;;;;;8.93;3.22;;;;;;;30.01;30.51;100432.06;5546402;32;33885;-70
2023/05/06 10:42:09;;;;;;;6.55;3.70;;;;;;;29.06;32.24;100426.56;5538303;32;33589;-68
2023/05/06 10:45:14;;;;;;;8.60;3.87;;;;;;;27.17;34.97;100424.41;5548057;32;33818;-70
2023/05/06 10:48:17;;;;;;;8.55;4.62;;;;;;;26.39;38.04;100419.25;5547125;32;33882;-70
2023/05/06 10:51:26;;;;;;;6.18;4.00;;;;;;;25.97;39.61;100413.19;5548367;32;33644;-69
2023/05/06 10:54:29;;;;;;;;;;;;;;;26.59;38.24;100404.84;5546536;32;34586;-71
2023/05/06 10:57:40;;;;;;;5.40;3.70;;;;;;;26.46;38.53;100399.97;5546527;32;34871;-70
2023/05/06 11:00:53;;;;;;;5.15;3.08;;;;;;;26.59;38.20;100398.59;5528575;32;33983;-70
2023/05/06 11:03:56;;;;;;;5.32;3.45;;;;;;;26.69;37.02;100396.69;5528419;32;33849;-70
2023/05/06 11:07:11;;;;;;;6.00;3.12;;;;;;;27.22;36.50;100397.97;5528603;32;33672;-69
2023/05/06 11:10:14;;;;;;;7.30;3.40;;;;;;;27.02;38.66;100389.84;5528084;32;34304;-69
2023/05/06 11:13:28;;;;;;;4.20;2.65;;;;;;;27.13;34.62;100388.75;5528638;32;33904;-71
2023/05/06 11:16:48;;;;;;;9.43;3.30;;;;;;;27.37;33.96;100388.94;5528323;32;34092;-70
2023/05/06 11:20:17;;;;;;;4.30;3.30;;;;;;;26.31;36.36;100386.34;5528635;32;33666;-70
2023/05/06 11:23:19;;;;;;;3.67;3.00;;;;;;;27.69;35.83;100388.56;5528529;32;33700;-71
2023/05/06 11:26:23;;;;;;;4.28;3.10;;;;;;;27.67;34.16;100402.47;5530141;32;33758;-69
2023/05/06 11:29:25;;;;;;;6.15;3.20;;;;;;;27.90;34.69;100394.69;5528761;32;33874;-69
2023/05/06 11:32:31;;;;;;;6.00;3.10;;;;;;;26.22;35.73;100385.25;5532890;32;33588;-72
2023/05/06 11:35:36;;;;;;;4.50;3.10;;;;;;;25.64;37.34;100394.59;5534707;32;33793;-71
2023/05/06 11:38:46;;;;;;;6.12;3.58;;;;;;;25.77;37.55;100391.38;5537165;32;34330;-73
2023/05/06 11:41:51;;;;;;;5.05;3.50;;;;;;;25.98;38.20;100386.81;5530556;32;34992;-70
2023/05/06 11:44:59;;;;;;;6.70;3.25;;;;;;;25.73;38.65;100391.09;5537271;32;34110;-72
2023/05/06 11:48:02;;;;;;;3.85;2.83;;;;;;;26.01;38.69;100395.25;5530116;32;34158;-70
2023/05/06 11:51:05;;;;;;;13.40;3.10;;;;;;;25.17;39.04;100391.94;5526502;32;34877;-70
2023/05/06 11:54:09;;;;;;;4.53;2.95;;;;;;;24.34;41.68;100385.34;5530538;32;34632;-71
2023/05/06 11:57:13;;;;;;;4.87;2.90;;;;;;;23.98;41.07;100403.94;5526905;32;34520;-71
2023/05/06 12:00:17;;;;;;;3.67;3.08;;;;;;;24.06;40.35;100398.03;5526897;32;33946;-71
2023/05/06 12:03:22;;;;;;;8.52;3.30;;;;;;;23.88;40.83;100392.97;5528193;32;34419;-69
2023/05/06 12:06:33;;;;;;;4.40;2.95;;;;;;;23.80;41.22;100394.25;5527864;32;33896;-69
2023/05/06 12:09:38;;;;;;;6.18;3.33;;;;;;;23.78;41.66;100392.87;5527098;32;33922;-69
2023/05/06 12:12:40;;;;;;;4.20;2.97;;;;;;;23.49;42.40;100392.25;5527903;32;34565;-70
2023/05/06 12:15:44;;;;;;;9.30;2.95;;;;;;;23.38;42.70;100385.06;5530480;32;33685;-69
2023/05/06 12:18:47;;;;;;;3.62;2.78;;;;;;;23.35;42.89;100391.78;5527627;32;35097;-69
2023/05/06 12:21:51;;;;;;;5.00;2.70;;;;;;;23.54;41.69;100388.78;5527570;32;34137;-69
2023/05/06 12:24:53;;;;;;;3.12;2.42;;;;;;;23.63;42.58;100387.25;5526679;32;34302;-70
2023/05/06 12:27:57;;;;;;;3.10;2.37;;;;;;;23.88;41.22;100378.59;5540956;32;33566;-69
2023/05/06 12:31:19;;;;;;;3.10;2.67;;;;;;;23.82;43.23;100377.72;5546785;32;34878;-71
2023/05/06 12:34:37;;;;;;;8.57;2.95;;;;;;;23.65;42.25;100377.84;5546514;32;33778;-71
2023/05/06 12:37:39;;;;;;;7.62;2.80;;;;;;;23.34;43.02;100379.31;5546612;32;33619;-71
2023/05/06 12:40:51;;;;;;;4.05;2.67;;;;;;;22.91;43.88;100380.06;5546713;32;33820;-70
2023/05/06 12:43:54;;;;;;;2.78;2.55;;;;;;;22.99;44.70;100376.16;5545628;32;33885;-70
2023/05/06 12:46:58;;;;;;;2.85;2.47;;;;;;;23.19;45.89;100373.69;5526982;32;34366;-72
2023/05/06 12:50:01;;;;;;;6.28;3.20;;;;;;;23.06;44.37;100376.78;5525137;32;33748;-70
2023/05/06 12:53:06;;;;;;;3.55;3.17;;;;;;;23.16;44.65;100378.78;5525989;32;33650;-72
2023/05/06 12:56:08;;;;;;;5.43;3.03;;;;;;;23.22;45.19;100380.50;5526866;32;33823;-70
2023/05/06 12:59:12;;;;;;;6.93;3.15;;;;;;;23.92;44.10;100377.03;5527322;32;33810;-70
2023/05/06 13:02:15;;;;;;;8.05;3.25;;;;;;;24.39;42.98;100375.34;5527384;32;34399;-71
2023/05/06 13:05:18;;;;;;;5.35;3.53;;;;;;;24.03;44.16;100368.75;5529831;32;34258;-69
2023/05/06 13:08:21;;;;;;;4.65;3.03;;;;;;;23.73;44.23;100368.41;5529448;32;33566;-71
2023/05/06 13:11:24;;;;;;;5.85;3.83;;;;;;;23.36;45.43;100365.53;5533688;32;34811;-69
2023/05/06 13:14:27;;;;;;;3.80;2.62;;;;;;;23.57;46.29;100364.75;5535840;32;34036;-71
2023/05/06 13:17:30;;;;;;;2.97;2.65;;;;;;;23.22;45.59;100361.56;5532827;32;34689;-70
2023/05/06 13:20:33;;;;;;;4.65;2.72;;;;;;;23.13;45.16;100371.19;5528038;32;33756;-69
2023/05/06 13:23:38;;;;;;;5.00;2.30;;;;;;;22.92;45.33;100365.50;5533185;32;33912;-69
2023/05/06 13:26:41;;;;;;;3.30;2.50;;;;;;;22.54;45.70;100360.00;5545803;32;33829;-68
2023/05/06 13:29:44;;;;;;;4.75;2.40;;;;;;;22.28;46.49;100361.47;5548418;32;33855;-69
2023/05/06 13:32:47;;;;;;;5.15;2.75;;;;;;;22.21;46.63;100368.12;5548588;32;33964;-68
2023/05/06 13:35:50;;;;;;;7.78;3.40;;;;;;;22.23;48.63;100372.19;5548380;32;33860;-69
2023/05/06 13:38:53;;;;;;;7.40;4.10;;;;;;;22.13;51.74;100376.59;5539731;32;34493;-70
2023/05/06 13:41:56;;;;;;;5.40;3.80;;;;;;;21.97;53.76;100376.34;5544527;32;34273;-70
2023/05/06 13:44:59;;;;;;;7.20;4.57;;;;;;;21.24;57.71;100379.72;5542988;32;33937;-70
2023/05/06 13:48:04;;;;;;;8.20;4.22;;;;;;;20.85;60.89;100385.84;5524661;32;34617;-69
2023/05/06 13:51:08;;;;;;;12.13;4.20;;;;;;;20.54;64.32;100383.44;5526502;32;33999;-70
2023/05/06 13:54:17;;;;;;;5.87;3.78;;;;;;;20.54;64.61;100376.19;5522990;32;33707;-69
2023/05/06 13:57:24;;;;;;;8.65;4.07;;;;;;;20.19;67.86;100386.88;5529000;32;33916;-68
2023/05/06 14:00:27;;;;;;;11.73;3.62;;;;;;;19.99;69.66;100385.53;5528956;32;33457;-69
2023/05/06 14:03:30;;;;;;;9.93;3.72;;;;;;;20.58;66.24;100382.75;5514900;32;33384;-69
2023/05/06 14:06:33;;;;;;;8.13;3.85;;;;;;;20.15;68.85;100383.00;5528660;32;33966;-68